createdAt,value
2023-02-22T00:02:11.300Z,168.52
2023-02-22T00:07:07.944Z,172.57
2023-02-22T00:09:35.042Z,166.57
2023-02-22T00:12:03.529Z,165.23
2023-02-22T00:14:30.600Z,164.57
2023-02-22T00:17:00.057Z,170.18
2023-02-22T00:19:30.916Z,167.20
2023-02-22T00:21:58.464Z,170.20
2023-02-22T00:24:26.856Z,169.32
2023-02-22T00:26:55.924Z,169.15
2023-02-22T00:29:25.987Z,168.95
2023-02-22T00:31:55.463Z,166.85
2023-02-22T00:34:24.463Z,167.98
2023-02-22T00:36:51.913Z,164.82
2023-02-22T00:39:19.302Z,164.50
2023-02-22T00:41:46.344Z,172.23
2023-02-22T00:44:13.678Z,172.95
2023-02-22T00:46:40.974Z,166.18
2023-02-22T00:49:08.216Z,169.27
2023-02-22T00:51:37.391Z,165.93
2023-02-22T00:54:06.749Z,170.95
2023-02-22T00:56:37.720Z,166.57
2023-02-22T00:59:05.129Z,171.32
2023-02-22T01:01:32.403Z,175.52
2023-02-22T01:04:01.003Z,167.77
2023-02-22T01:06:29.598Z,166.38
2023-02-22T01:09:02.649Z,170.68
2023-02-22T01:11:30.977Z,172.25
2023-02-22T01:13:58.010Z,168.18
2023-02-22T01:16:25.190Z,173.52
2023-02-22T01:18:52.653Z,176.77
2023-02-22T01:21:23.104Z,178.63
2023-02-22T01:23:50.021Z,172.50
2023-02-22T01:26:21.711Z,175.65
2023-02-22T01:28:48.926Z,177.45
2023-02-22T01:31:16.343Z,172.20
2023-02-22T01:33:44.671Z,175.38
2023-02-22T01:36:11.903Z,172.88
2023-02-22T01:38:41.006Z,171.25
2023-02-22T01:41:08.546Z,175.70
2023-02-22T01:43:40.062Z,175.30
2023-02-22T01:46:23.645Z,170.65
2023-02-22T01:48:56.405Z,170.73
2023-02-22T01:51:38.019Z,172.90
2023-02-22T01:54:42.552Z,173.50
2023-02-22T01:57:22.095Z,178.85
2023-02-22T01:59:55.081Z,169.00
2023-02-22T02:02:25.257Z,177.95
2023-02-22T02:04:56.692Z,173.73
2023-02-22T02:07:24.921Z,177.77
2023-02-22T02:10:00.627Z,177.40
2023-02-22T02:12:31.013Z,174.10
2023-02-22T02:15:32.390Z,179.75
2023-02-22T02:18:04.153Z,178.02
2023-02-22T02:20:51.957Z,180.57
2023-02-22T02:23:47.896Z,176.82
2023-02-22T02:26:52.794Z,179.05
2023-02-22T02:29:28.509Z,180.50
2023-02-22T02:32:01.502Z,172.13
2023-02-22T02:34:41.340Z,183.02
2023-02-22T02:37:22.063Z,173.05
2023-02-22T02:40:18.317Z,180.68
2023-02-22T02:42:55.456Z,176.02
2023-02-22T02:45:31.236Z,178.32
2023-02-22T02:48:00.154Z,167.75
2023-02-22T02:50:32.256Z,179.20
2023-02-22T02:53:04.649Z,179.30
2023-02-22T02:55:32.972Z,179.95
2023-02-22T02:58:00.696Z,179.40
2023-02-22T03:00:39.631Z,173.65
2023-02-22T03:03:18.361Z,182.10
2023-02-22T03:06:02.233Z,181.93
2023-02-22T03:08:53.435Z,174.80
2023-02-22T03:11:28.679Z,179.93
2023-02-22T03:14:12.534Z,179.80
2023-02-22T03:17:19.379Z,171.57
2023-02-22T03:20:05.107Z,178.68
2023-02-22T03:22:50.902Z,175.48
2023-02-22T03:25:28.810Z,177.13
2023-02-22T03:28:07.489Z,175.85
2023-02-22T03:30:42.845Z,181.35
2023-02-22T03:36:02.085Z,176.52
2023-02-22T03:38:34.030Z,179.70
2023-02-22T03:41:04.258Z,177.68
2023-02-22T03:43:40.984Z,182.88
2023-02-22T03:46:17.498Z,183.63
2023-02-22T03:49:00.405Z,178.80
2023-02-22T03:51:33.110Z,183.43
2023-02-22T03:54:05.755Z,182.32
2023-02-22T03:57:01.110Z,185.60
2023-02-22T03:59:32.659Z,184.25
2023-02-22T04:02:00.003Z,185.30
2023-02-22T04:04:29.503Z,183.20
2023-02-22T04:06:57.017Z,177.02
2023-02-22T04:09:24.830Z,180.73
2023-02-22T04:11:54.165Z,188.40
2023-02-22T04:14:23.813Z,186.77
2023-02-22T04:16:51.136Z,188.93
2023-02-22T04:19:21.084Z,187.57
2023-02-22T04:21:49.753Z,192.65
2023-02-22T04:24:22.494Z,195.77
2023-02-22T04:26:51.113Z,195.80
2023-02-22T04:29:24.349Z,184.70
2023-02-22T04:31:51.807Z,186.32
2023-02-22T04:34:18.873Z,189.32
2023-02-22T04:36:45.734Z,196.95
2023-02-22T04:39:13.145Z,195.70
2023-02-22T04:41:40.780Z,195.93
2023-02-22T04:44:10.608Z,198.65
2023-02-22T04:46:37.939Z,193.82
2023-02-22T04:49:07.424Z,190.15
2023-02-22T04:51:38.466Z,204.18
2023-02-22T04:54:11.054Z,196.30
2023-02-22T04:56:44.650Z,208.68
2023-02-22T04:59:14.764Z,195.98
2023-02-22T05:01:45.350Z,200.43
2023-02-22T05:04:12.301Z,204.07
2023-02-22T05:06:39.449Z,205.80
2023-02-22T05:09:09.119Z,193.52
2023-02-22T05:11:36.824Z,209.02
2023-02-22T05:14:04.135Z,206.25
2023-02-22T05:16:31.432Z,201.70
2023-02-22T05:19:00.060Z,199.57
2023-02-22T05:21:27.461Z,190.10
2023-02-22T05:23:57.220Z,198.45
2023-02-22T05:26:24.302Z,196.00
2023-02-22T05:28:54.940Z,204.63
2023-02-22T05:31:22.394Z,201.23
2023-02-22T05:33:50.175Z,195.18
2023-02-22T05:36:19.668Z,198.30
2023-02-22T05:38:46.570Z,188.10
2023-02-22T05:41:13.737Z,191.48
2023-02-22T05:43:41.110Z,197.45
2023-02-22T05:46:08.810Z,184.32
2023-02-22T05:48:37.105Z,189.55
2023-02-22T05:51:07.394Z,199.75
2023-02-22T05:53:34.597Z,190.85
2023-02-22T05:56:02.291Z,194.05
2023-02-22T05:58:29.719Z,198.27
2023-02-22T06:00:57.083Z,193.43
2023-02-22T06:03:24.327Z,187.80
2023-02-22T06:05:52.049Z,198.27
2023-02-22T06:08:19.746Z,194.57
2023-02-22T06:10:46.663Z,197.55
2023-02-22T06:13:14.551Z,202.45
2023-02-22T06:15:44.625Z,187.38
2023-02-22T06:18:12.276Z,199.73
2023-02-22T06:20:39.493Z,186.15
2023-02-22T06:23:06.575Z,195.45
2023-02-22T06:25:33.765Z,188.75
2023-02-22T06:28:01.517Z,199.70
2023-02-22T06:30:31.447Z,202.60
2023-02-22T06:33:04.633Z,199.65
2023-02-22T06:35:35.542Z,209.93
2023-02-22T06:38:02.715Z,183.27
2023-02-22T06:40:46.160Z,207.63
2023-02-22T06:43:14.534Z,203.57
2023-02-22T06:45:42.870Z,200.63
2023-02-22T06:48:13.589Z,186.20
2023-02-22T06:50:41.074Z,201.57
2023-02-22T06:53:09.647Z,190.20
2023-02-22T06:55:36.569Z,189.77
2023-02-22T06:58:05.120Z,196.35
2023-02-22T07:00:36.838Z,184.05
2023-02-22T07:03:04.987Z,192.80
2023-02-22T07:05:32.397Z,197.40
2023-02-22T07:08:05.551Z,182.52
2023-02-22T07:10:34.466Z,185.80
2023-02-22T07:13:03.373Z,187.13
2023-02-22T07:15:33.108Z,175.65
2023-02-22T07:18:03.304Z,184.05
2023-02-22T07:20:32.046Z,188.43
2023-02-22T07:23:00.706Z,182.98
2023-02-22T07:25:28.063Z,192.63
2023-02-22T07:27:55.095Z,184.80
2023-02-22T07:30:31.451Z,179.73
2023-02-22T07:33:02.776Z,181.50
2023-02-22T07:35:39.030Z,186.32
2023-02-22T07:38:10.849Z,183.98
2023-02-22T07:40:39.790Z,184.20
2023-02-22T07:43:19.882Z,181.32
2023-02-22T07:45:49.228Z,178.32
2023-02-22T07:48:18.970Z,174.57
2023-02-22T07:50:46.601Z,187.75
2023-02-22T07:53:18.448Z,183.60
2023-02-22T07:55:45.883Z,188.75
2023-02-22T07:58:17.914Z,173.57
2023-02-22T08:00:45.188Z,179.63
2023-02-22T08:03:19.365Z,174.75
2023-02-22T08:08:31.181Z,169.35
2023-02-22T08:10:59.814Z,171.55
2023-02-22T08:13:26.986Z,167.23
2023-02-22T08:15:54.374Z,167.55
2023-02-22T08:18:23.912Z,180.45
2023-02-22T08:20:54.336Z,174.88
2023-02-22T08:23:25.498Z,175.70
2023-02-22T08:25:52.969Z,174.05
2023-02-22T08:28:23.876Z,169.20
2023-02-22T08:30:51.857Z,177.10
2023-02-22T08:33:22.100Z,177.05
2023-02-22T08:35:50.159Z,182.13
2023-02-22T08:38:24.934Z,178.93
2023-02-22T08:40:53.590Z,169.80
2023-02-22T08:43:23.490Z,175.75
2023-02-22T08:45:52.631Z,171.48
2023-02-22T08:48:22.419Z,170.50
2023-02-22T08:50:52.717Z,179.80
2023-02-22T08:53:19.663Z,174.07
2023-02-22T08:55:47.082Z,175.50
2023-02-22T08:58:14.710Z,173.90
2023-02-22T09:00:45.009Z,172.20
2023-02-22T09:03:14.134Z,173.65
2023-02-22T09:05:43.152Z,175.93
2023-02-22T09:08:10.121Z,172.40
2023-02-22T09:10:37.351Z,176.23
2023-02-22T09:13:04.807Z,174.15
2023-02-22T09:15:33.293Z,162.70
2023-02-22T09:18:00.992Z,162.93
2023-02-22T09:20:29.144Z,166.70
2023-02-22T09:22:59.815Z,160.40
2023-02-22T09:25:27.522Z,163.55
2023-02-22T09:27:56.821Z,159.85
2023-02-22T09:30:33.244Z,162.32
2023-02-22T09:33:12.358Z,164.88
2023-02-22T09:35:46.758Z,159.13
2023-02-22T09:38:19.664Z,159.57
2023-02-22T09:40:50.805Z,165.07
2023-02-22T09:43:41.043Z,162.02
2023-02-22T09:46:35.300Z,153.40
2023-02-22T09:49:28.483Z,151.77
2023-02-22T09:52:12.299Z,151.10
2023-02-22T09:54:52.560Z,160.45
2023-02-22T09:57:42.444Z,160.07
2023-02-22T10:00:19.014Z,156.88
2023-02-22T10:03:15.482Z,182.57
2023-02-22T10:05:46.896Z,176.43
2023-02-22T10:08:19.252Z,161.63
2023-02-22T10:10:52.874Z,161.10
2023-02-22T10:13:39.862Z,157.77
2023-02-22T10:16:11.869Z,155.60
2023-02-22T10:18:46.567Z,153.15
2023-02-22T10:21:39.961Z,156.70
2023-02-22T10:24:26.623Z,152.23
2023-02-22T10:26:58.720Z,157.40
2023-02-22T10:29:40.671Z,152.35
2023-02-22T10:32:16.025Z,154.27
2023-02-22T10:34:54.121Z,153.18
2023-02-22T10:37:27.563Z,151.75
2023-02-22T10:42:29.710Z,164.63
2023-02-22T10:44:57.051Z,152.75
2023-02-22T10:47:24.902Z,166.95
2023-02-22T10:49:56.729Z,158.45
2023-02-22T10:52:30.508Z,157.82
2023-02-22T10:55:14.324Z,160.23
2023-02-22T10:57:49.961Z,151.23
2023-02-22T11:00:31.675Z,157.20
2023-02-22T11:03:02.686Z,157.38
2023-02-22T11:05:29.807Z,157.77
2023-02-22T11:08:17.640Z,158.52
2023-02-22T11:10:44.986Z,158.07
2023-02-22T11:13:33.548Z,154.70
2023-02-22T11:16:28.156Z,162.45
2023-02-22T11:19:05.426Z,158.82
2023-02-22T11:21:32.990Z,157.38
2023-02-22T11:24:08.710Z,156.48
2023-02-22T11:27:00.864Z,152.60
2023-02-22T11:29:37.512Z,154.38
2023-02-22T11:32:30.945Z,153.85
2023-02-22T11:35:29.799Z,154.57
2023-02-22T11:38:21.473Z,160.27
2023-02-22T11:41:15.037Z,155.57
2023-02-22T11:43:47.784Z,163.38
2023-02-22T11:46:29.083Z,158.90
2023-02-22T11:49:06.740Z,163.98
2023-02-22T11:51:54.854Z,162.95
2023-02-22T11:54:47.089Z,162.65
2023-02-22T11:57:22.950Z,160.65
2023-02-22T12:00:16.348Z,158.15
2023-02-22T12:02:56.773Z,162.73
2023-02-22T12:05:59.602Z,151.30
2023-02-22T12:09:07.913Z,157.80
2023-02-22T12:12:08.488Z,161.95
2023-02-22T12:14:58.327Z,161.93
2023-02-22T12:17:54.292Z,159.35
2023-02-22T12:20:52.508Z,165.20
2023-02-22T12:23:47.523Z,162.15
2023-02-22T12:26:21.079Z,161.38
2023-02-22T12:29:15.118Z,162.45
2023-02-22T12:31:45.849Z,166.57
2023-02-22T12:34:43.687Z,157.27
2023-02-22T12:37:17.671Z,156.55
2023-02-22T12:40:13.663Z,166.60
2023-02-22T12:42:56.072Z,165.13
2023-02-22T12:45:32.309Z,163.88
2023-02-22T12:48:04.350Z,161.43
2023-02-22T12:50:34.567Z,165.48
2023-02-22T12:53:04.314Z,161.07
2023-02-22T12:55:46.196Z,163.30
2023-02-22T12:58:34.987Z,162.77
2023-02-22T13:01:12.299Z,163.00
2023-02-22T13:03:45.171Z,167.05
2023-02-22T13:06:36.791Z,162.25
2023-02-22T13:09:24.774Z,164.75
2023-02-22T13:11:54.918Z,159.35
2023-02-22T13:14:37.320Z,165.13
2023-02-22T13:17:40.224Z,162.43
2023-02-22T13:20:25.919Z,164.55
2023-02-22T13:23:00.527Z,165.10
2023-02-22T13:25:39.587Z,164.25
2023-02-22T13:28:13.936Z,166.00
2023-02-22T13:31:15.544Z,165.30
2023-02-22T13:36:51.051Z,162.40
2023-02-22T13:39:36.870Z,165.38
2023-02-22T13:42:35.125Z,165.00
2023-02-22T13:45:29.848Z,166.20
2023-02-22T13:48:15.827Z,163.98
2023-02-22T13:51:18.714Z,159.90
2023-02-22T13:54:08.608Z,157.88
2023-02-22T13:56:43.009Z,161.77
2023-02-22T13:59:37.660Z,156.00
2023-02-22T14:02:08.014Z,155.80
2023-02-22T14:04:43.112Z,156.07
2023-02-22T14:07:19.086Z,154.55
2023-02-22T14:10:05.198Z,158.25
2023-02-22T14:12:38.758Z,159.30
2023-02-22T14:15:28.722Z,155.07
2023-02-22T14:18:02.741Z,156.38
2023-02-22T14:20:38.535Z,156.52
2023-02-22T14:23:24.140Z,155.57
2023-02-22T14:25:57.169Z,153.95
2023-02-22T14:28:54.728Z,157.98
2023-02-22T14:31:37.004Z,157.82
2023-02-22T14:34:22.652Z,159.35
2023-02-22T14:39:46.285Z,156.70
2023-02-22T14:42:33.610Z,152.48
2023-02-22T14:45:09.742Z,154.73
2023-02-22T14:47:43.998Z,152.77
2023-02-22T14:50:26.950Z,153.65
2023-02-22T14:53:13.818Z,154.00
2023-02-22T14:56:07.380Z,156.52
2023-02-22T14:58:40.599Z,158.55
2023-02-22T15:04:32.122Z,152.68
2023-02-22T15:07:01.633Z,154.63
2023-02-22T15:09:34.877Z,160.55
2023-02-22T15:12:05.503Z,161.30
2023-02-22T15:14:38.069Z,157.75
2023-02-22T15:17:18.953Z,159.93
2023-02-22T15:19:48.624Z,160.88
2023-02-22T15:22:27.907Z,162.35
2023-02-22T15:25:00.503Z,157.52
2023-02-22T15:27:29.097Z,157.35
2023-02-22T15:30:04.665Z,155.05
2023-02-22T15:32:53.469Z,163.77
2023-02-22T15:35:29.914Z,154.77
2023-02-22T15:38:04.357Z,155.63
2023-02-22T15:40:37.284Z,157.77
2023-02-22T15:43:08.856Z,160.48
2023-02-22T15:45:43.454Z,162.40
2023-02-22T15:48:14.622Z,157.40
2023-02-22T15:51:04.784Z,162.40
2023-02-22T15:54:02.296Z,161.52
2023-02-22T15:56:31.867Z,151.57
2023-02-22T15:59:09.167Z,159.43
2023-02-22T16:01:43.192Z,161.73
2023-02-22T16:04:26.381Z,154.52
2023-02-22T16:07:04.719Z,153.25
2023-02-22T16:09:34.087Z,151.57
2023-02-22T16:12:10.871Z,152.23
2023-02-22T16:14:37.836Z,158.48
2023-02-22T16:18:01.517Z,161.57
2023-02-22T16:20:32.714Z,158.10
2023-02-22T16:23:00.518Z,152.48
2023-02-22T16:25:35.746Z,158.65
2023-02-22T16:28:32.783Z,159.25
2023-02-22T16:31:00.657Z,158.50
2023-02-22T16:33:34.184Z,157.35
2023-02-22T16:36:08.334Z,155.52
2023-02-22T16:38:38.471Z,155.88
2023-02-22T16:41:07.898Z,157.90
2023-02-22T16:43:37.974Z,153.65
2023-02-22T16:46:07.352Z,156.23
2023-02-22T16:48:39.061Z,160.68
2023-02-22T16:51:18.210Z,162.20
2023-02-22T16:53:48.611Z,158.70
2023-02-22T16:56:18.668Z,159.88
2023-02-22T16:58:49.902Z,155.73
2023-02-22T17:01:20.203Z,163.00
2023-02-22T17:03:48.324Z,166.48
2023-02-22T17:06:15.812Z,164.45
2023-02-22T17:08:44.334Z,166.70
2023-02-22T17:11:14.764Z,168.02
2023-02-22T17:13:42.034Z,168.05
2023-02-22T17:16:15.572Z,165.82
2023-02-22T17:18:43.118Z,165.90
2023-02-22T17:21:12.004Z,164.25
2023-02-22T17:23:40.926Z,163.93
2023-02-22T17:26:08.257Z,167.63
2023-02-22T17:28:36.258Z,164.35
2023-02-22T17:31:03.343Z,179.75
2023-02-22T17:33:37.261Z,187.90
2023-02-22T17:36:05.452Z,161.10
2023-02-22T17:38:32.524Z,161.93
2023-02-22T17:41:13.015Z,220.48
2023-02-22T17:43:40.228Z,170.55
2023-02-22T17:46:20.112Z,181.73
2023-02-22T17:48:51.081Z,177.15
2023-02-22T17:51:19.547Z,233.70
2023-02-22T17:54:04.511Z,160.32
2023-02-22T17:56:31.763Z,166.63
2023-02-22T17:58:59.112Z,156.38
2023-02-22T18:01:32.061Z,168.05
2023-02-22T18:04:01.224Z,161.82
2023-02-22T18:06:30.225Z,161.75
2023-02-22T18:08:59.307Z,161.60
2023-02-22T18:11:32.875Z,163.38
2023-02-22T18:14:02.541Z,160.77
2023-02-22T18:16:29.890Z,165.32
2023-02-22T18:18:57.289Z,167.77
2023-02-22T18:21:27.106Z,164.18
2023-02-22T18:23:54.970Z,171.00
2023-02-22T18:26:25.799Z,165.35
2023-02-22T18:28:56.620Z,162.77
2023-02-22T18:31:25.132Z,166.23
2023-02-22T18:33:55.141Z,167.27
2023-02-22T18:36:25.465Z,173.77
2023-02-22T18:38:53.852Z,176.98
2023-02-22T18:41:26.618Z,175.38
2023-02-22T18:43:55.471Z,163.80
2023-02-22T18:46:24.199Z,167.77
2023-02-22T18:48:54.112Z,165.88
2023-02-22T18:51:21.380Z,173.32
2023-02-22T18:53:50.278Z,170.20
2023-02-22T18:56:32.153Z,172.98
2023-02-22T18:59:02.381Z,174.90
2023-02-22T19:01:31.601Z,171.30
2023-02-22T19:04:00.432Z,166.90
2023-02-22T19:06:27.628Z,176.05
2023-02-22T19:08:58.495Z,167.27
2023-02-22T19:11:26.169Z,164.27
2023-02-22T19:13:58.020Z,173.52
2023-02-22T19:16:29.630Z,166.60
2023-02-22T19:18:58.913Z,171.40
2023-02-22T19:21:28.626Z,168.43
2023-02-22T19:24:01.201Z,170.80
2023-02-22T19:26:30.910Z,174.15
2023-02-22T19:29:01.032Z,174.15
2023-02-22T19:31:31.749Z,170.85
2023-02-22T19:34:11.484Z,165.55
2023-02-22T19:36:47.611Z,175.10
2023-02-22T19:39:19.824Z,178.02
2023-02-22T19:41:47.429Z,173.23
2023-02-22T19:44:17.433Z,170.77
2023-02-22T19:46:45.740Z,170.38
2023-02-22T19:49:14.011Z,173.65
2023-02-22T19:51:40.985Z,164.25
2023-02-22T19:54:13.158Z,172.57
2023-02-22T19:56:41.084Z,168.32
2023-02-22T19:59:13.669Z,170.18
2023-02-22T20:01:46.097Z,175.57
2023-02-22T20:04:21.601Z,170.70
2023-02-22T20:07:00.050Z,178.97
2023-02-22T20:09:37.358Z,170.10
2023-02-22T20:12:05.637Z,175.68
2023-02-22T20:14:35.591Z,174.05
2023-02-22T20:17:09.681Z,171.50
2023-02-22T20:19:40.663Z,168.90
2023-02-22T20:22:10.257Z,177.23
2023-02-22T20:24:38.264Z,175.23
2023-02-22T20:27:05.334Z,173.43
2023-02-22T20:29:33.369Z,169.32
2023-02-22T20:32:04.627Z,173.38
2023-02-22T20:34:33.493Z,169.63
2023-02-22T20:37:01.320Z,176.65
2023-02-22T20:39:29.172Z,177.60
2023-02-22T20:42:01.045Z,174.20
2023-02-22T20:44:28.319Z,173.93
2023-02-22T20:46:55.794Z,168.25
2023-02-22T20:49:25.968Z,174.55
2023-02-22T20:51:55.193Z,171.82
2023-02-22T20:54:23.132Z,174.25
2023-02-22T20:56:53.167Z,177.35
2023-02-22T20:59:22.689Z,175.95
2023-02-22T21:01:51.154Z,177.18
2023-02-22T21:04:18.318Z,169.95
2023-02-22T21:06:46.828Z,172.80
2023-02-22T21:09:19.889Z,176.98
2023-02-22T21:11:47.700Z,178.38
2023-02-22T21:14:24.314Z,178.30
2023-02-22T21:16:54.975Z,179.65
2023-02-22T21:19:28.419Z,177.40
2023-02-22T21:21:59.792Z,174.32
2023-02-22T21:24:30.868Z,181.63
2023-02-22T21:27:02.789Z,173.20
2023-02-22T21:29:34.506Z,174.10
2023-02-22T21:32:04.928Z,182.20
2023-02-22T21:34:32.372Z,178.05
2023-02-22T21:36:59.578Z,180.27
2023-02-22T21:39:28.887Z,173.50
2023-02-22T21:42:00.748Z,170.75
2023-02-22T21:44:28.480Z,175.93
2023-02-22T21:46:55.495Z,170.35
2023-02-22T21:49:25.516Z,174.45
2023-02-22T21:52:00.870Z,178.52
2023-02-22T21:54:30.910Z,176.27
2023-02-22T21:57:00.474Z,174.55
2023-02-22T21:59:28.000Z,184.60
2023-02-22T22:01:56.596Z,175.90
2023-02-22T22:04:27.840Z,173.82
2023-02-22T22:06:59.551Z,174.75
2023-02-22T22:09:33.490Z,168.20
2023-02-22T22:12:05.537Z,162.60
2023-02-22T22:14:38.458Z,163.40
2023-02-22T22:17:08.048Z,174.40
2023-02-22T22:19:41.756Z,178.25
2023-02-22T22:22:09.324Z,178.40
2023-02-22T22:24:37.326Z,172.82
2023-02-22T22:27:06.757Z,170.95
2023-02-22T22:29:35.194Z,162.52
2023-02-22T22:32:07.128Z,172.20
2023-02-22T22:34:38.153Z,169.55
2023-02-22T22:37:05.077Z,175.02
2023-02-22T22:39:32.398Z,172.77
2023-02-22T22:42:00.478Z,172.23
2023-02-22T22:44:33.028Z,174.80
2023-02-22T22:47:02.542Z,177.35
2023-02-22T22:49:31.701Z,174.65
2023-02-22T22:56:06.054Z,181.48
2023-02-22T22:59:39.901Z,168.52
2023-02-22T23:06:46.221Z,182.07
2023-02-22T23:17:52.558Z,170.20
2023-02-22T23:21:30.509Z,176.27
2023-02-22T23:25:08.543Z,173.32
2023-02-22T23:28:47.595Z,178.82
2023-02-22T23:32:25.412Z,180.13
2023-02-22T23:35:27.473Z,176.45
2023-02-22T23:39:31.883Z,180.60
2023-02-22T23:46:27.003Z,175.48
2023-02-22T23:57:02.691Z,173.90
2023-02-22T23:59:33.737Z,176.68
